Portada
METAR-TAF:

METAR-TAF

Aeroports :

Urgench, Uzbekistan

latitud: 41-35N, longitud: 060-38-42E, altitud: 98 m

Observació

L'informe es va fer fa 27 minuts, a les 16:00 UTC
Vent 10 kt del Nord/Nord-Est
Temperatura 0°C
Humitat 80%
Pressió 1016 hPa
Visibilitat 10 km o més
sense núvols per sota de 1500 mi sense presència de cumulonimbus.

METAR: UTNU 201600Z 03010KT CAVOK M00/M03 Q1016 R31/CLRD70 NOSIG

Hora: 21:27 (16:27 UTC)

Pronòstic

L'informe es va fer fa 5 hores i 27 minuts, a les 11:00 UTC
Pronòstic vàlid del 20 a les 12 UTC al 21 a les 12 UTC
Vent 12 kt del Nord/Nord-Est amb ràfegues de 22 kt
Visibilitat: 6000 m
Cel ennuvolat a una alçada de 2000 ft
Cel ennuvolat a una alçada de 10000 ft
Temporalment
l' 20 a les 12 UTC al 20 a les 18 UTC
Vent 16 kt del Oest
Cel cobert a una alçada de 1000 ft
neu

TAF: UTNU 201100Z 2012/2112 03012G22KT 6000 BKN020 BKN100 TEMPO 2012/2018 28016KT -SN OVC010

Observacions i pronòstics meteorològics de més de 4000 aeroports (METAR i TAF).

Les estacions disponibles són els punts grocs i vermells al mapa.

Posi el ratolí al punt desitjat per veure el nom de l'estació.

Feu clic per veure les observacions i els pronòstics meteorològics.

Per canviar el mapa: feu clic els botons verds amb una creu de color negre per apropar; al botó verd amb un guió per allunyar la imatge; o en les fletxes verdes per a mapes adjacents.


METAR-TAF: